Time;durP1;ratioP1;P1;durP2;ratioP2;P2;SDS_P1;SDS_P2;PMS_P1;PMS_P2;Temp;Humidity;BMP_temperature;BMP_pressure;BME280_temperature;BME280_humidity;BME280_pressure;Samples;Min_cycle;Max_cycle;Signal;HPM_P1;HPM_P2
2022/06/12 00:00:01;;;;;;;;;3.00;2.00;;;;;-143.57;100.00;65101.44;5099813;27;45216;-52
2022/06/12 00:02:27;;;;;;;;;2.25;2.25;;;;;-143.57;100.00;65101.44;5100065;27;45500;-51
2022/06/12 00:04:52;;;;;;;;;2.00;2.00;;;;;-143.57;100.00;65101.44;5099480;27;45542;-52
2022/06/12 00:07:17;;;;;;;;;2.00;2.00;;;;;-143.57;100.00;65101.44;5099389;27;45435;-53
2022/06/12 00:09:43;;;;;;;;;2.25;2.25;;;;;-143.57;100.00;65101.44;5099486;27;45313;-52
2022/06/12 00:12:10;;;;;;;;;2.00;2.00;;;;;-143.57;100.00;65101.44;5099568;27;45461;-51
2022/06/12 00:14:36;;;;;;;;;3.75;3.75;;;;;-143.57;100.00;65101.44;5099691;27;45474;-53
2022/06/12 00:17:02;;;;;;;;;2.50;0.25;;;;;-143.57;100.00;65101.44;5098969;27;46070;-52
2022/06/12 00:19:30;;;;;;;;;1.75;1.75;;;;;-143.57;100.00;65101.44;5099193;27;45346;-51
2022/06/12 00:21:56;;;;;;;;;2.00;2.00;;;;;-143.57;100.00;65101.44;5098314;27;45261;-49
2022/06/12 00:24:23;;;;;;;;;4.75;1.25;;;;;-143.57;100.00;65101.44;5099655;27;45385;-53
2022/06/12 00:26:53;;;;;;;;;2.00;2.00;;;;;-143.57;100.00;65101.44;5099435;27;45405;-49
2022/06/12 00:29:20;;;;;;;;;2.00;2.00;;;;;-143.57;100.00;65101.44;5098343;27;46151;-50
2022/06/12 00:31:49;;;;;;;;;3.75;2.00;;;;;-143.57;100.00;65101.44;5099202;27;45307;-54
2022/06/12 00:34:17;;;;;;;;;3.00;2.00;;;;;-143.57;100.00;65101.44;5099286;27;45396;-51
2022/06/12 00:36:43;;;;;;;;;3.50;3.00;;;;;-143.57;100.00;65101.44;5098909;27;46293;-51
2022/06/12 00:39:09;;;;;;;;;1.00;1.00;;;;;-143.57;100.00;65101.44;5099176;27;45266;-52
2022/06/12 00:41:36;;;;;;;;;3.75;2.00;;;;;-143.57;100.00;65101.44;5099158;27;45232;-51
2022/06/12 00:44:02;;;;;;;;;3.75;2.00;;;;;-143.57;100.00;65101.44;5099463;27;45298;-49
2022/06/12 00:46:42;;;;;;;;;4.25;2.00;;;;;-143.57;100.00;65101.44;5099003;27;46769;-52
2022/06/12 00:49:11;;;;;;;;;3.50;2.00;;;;;-143.57;100.00;65101.44;5098833;27;45525;-51
2022/06/12 00:51:38;;;;;;;;;2.00;2.00;;;;;-143.57;100.00;65101.44;5098923;27;45338;-52
2022/06/12 00:54:04;;;;;;;;;3.75;2.00;;;;;-143.57;100.00;65101.44;5098826;27;45335;-50
2022/06/12 00:56:33;;;;;;;;;4.00;2.50;;;;;-143.57;100.00;65101.44;5098619;27;45346;-53
2022/06/12 00:59:07;;;;;;;;;3.25;1.00;;;;;-143.57;100.00;65101.44;5098608;27;45535;-52
2022/06/12 01:01:39;;;;;;;;;1.75;1.75;;;;;-143.57;100.00;65101.44;5098610;27;45424;-52
2022/06/12 01:06:52;;;;;;;;;7.75;3.50;;;;;-143.57;100.00;65101.44;5098742;27;45299;-51
2022/06/12 01:09:22;;;;;;;;;2.75;2.75;;;;;-143.57;100.00;65101.44;5098866;27;45358;-51
2022/06/12 01:11:51;;;;;;;;;2.75;1.75;;;;;-143.57;100.00;65101.44;5098541;27;45333;-52
2022/06/12 01:14:21;;;;;;;;;4.00;2.25;;;;;-143.57;100.00;65101.44;5098781;27;45309;-51
2022/06/12 01:16:48;;;;;;;;;2.50;2.50;;;;;-143.57;100.00;65101.44;5098410;27;47153;-51
2022/06/12 01:19:46;;;;;;;;;3.00;1.75;;;;;-143.57;100.00;65101.44;5098326;27;45349;-52
2022/06/12 01:22:57;;;;;;;;;5.00;2.00;;;;;-143.57;100.00;65101.44;5092634;27;45547;-51
2022/06/12 01:25:41;;;;;;;;;5.50;3.00;;;;;-143.57;100.00;65101.44;5098710;27;45397;-53
2022/06/12 01:28:40;;;;;;;;;3.00;2.00;;;;;-143.57;100.00;65101.44;5098088;27;45380;-51
2022/06/12 01:31:21;;;;;;;;;4.75;2.00;;;;;-143.57;100.00;65101.44;5098188;27;45397;-51
2022/06/12 01:33:58;;;;;;;;;2.25;2.00;;;;;-143.57;100.00;65101.44;5098458;27;45447;-49
2022/06/12 01:36:42;;;;;;;;;2.25;1.25;;;;;-143.57;100.00;65101.44;5098068;27;45317;-51
2022/06/12 01:39:16;;;;;;;;;4.00;3.50;;;;;-143.57;100.00;65101.44;5097563;27;45611;-49
2022/06/12 01:42:00;;;;;;;;;1.75;1.50;;;;;-143.57;100.00;65101.44;5098134;27;45284;-49
2022/06/12 01:44:34;;;;;;;;;5.00;2.00;;;;;-143.57;100.00;65101.44;5098182;27;45240;-51
2022/06/12 01:47:22;;;;;;;;;4.00;2.75;;;;;-143.57;100.00;65101.44;5098516;27;45323;-50
2022/06/12 01:50:07;;;;;;;;;3.25;2.50;;;;;-143.57;100.00;65101.44;5097699;27;46452;-50
2022/06/12 01:52:52;;;;;;;;;2.75;1.75;;;;;-143.57;100.00;65101.44;5097797;27;45425;-51
2022/06/12 01:55:26;;;;;;;;;5.00;1.75;;;;;-143.57;100.00;65101.44;5098072;27;45283;-51
2022/06/12 01:58:06;;;;;;;;;1.25;1.25;;;;;-143.57;100.00;65101.44;5098157;27;45317;-50
2022/06/12 02:00:33;;;;;;;;;2.50;1.50;;;;;-143.57;100.00;65101.44;5097674;27;47044;-52
2022/06/12 02:03:28;;;;;;;;;4.00;1.25;;;;;-143.57;100.00;65101.44;5079488;27;45287;-49
2022/06/12 02:06:03;;;;;;;;;4.00;1.75;;;;;-143.57;100.00;65101.44;5086435;27;45361;-51
2022/06/12 02:08:37;;;;;;;;;2.00;1.75;;;;;-143.57;100.00;65101.44;5097533;27;45233;-51
2022/06/12 02:14:12;;;;;;;;;3.50;2.00;;;;;-143.57;100.00;65101.44;5097535;27;45326;-51
2022/06/12 02:16:45;;;;;;;;;4.50;1.75;;;;;-143.57;100.00;65101.44;5097700;27;45390;-51
2022/06/12 02:19:23;;;;;;;;;0.75;0.75;;;;;-143.57;100.00;65101.44;5097372;27;45242;-51
2022/06/12 02:22:07;;;;;;;;;2.00;2.00;;;;;-143.57;100.00;65101.44;5097265;27;45605;-51
2022/06/12 02:24:39;;;;;;;;;6.00;1.50;;;;;-143.57;100.00;65101.44;5097551;27;45261;-50
2022/06/12 02:27:17;;;;;;;;;3.00;2.50;;;;;-143.57;100.00;65101.44;5096730;27;45331;-50
2022/06/12 02:29:50;;;;;;;;;4.75;1.75;;;;;-143.57;100.00;65101.44;5097632;27;45280;-51
2022/06/12 02:32:38;;;;;;;;;3.00;1.25;;;;;-143.57;100.00;65101.44;5097011;27;46240;-49
2022/06/12 02:35:20;;;;;;;;;2.50;2.50;;;;;-143.57;100.00;65101.44;5096906;27;45330;-51
2022/06/12 02:37:59;;;;;;;;;3.75;2.25;;;;;-143.57;100.00;65101.44;5097394;27;45339;-51
2022/06/12 02:40:37;;;;;;;;;3.00;1.00;;;;;-143.57;100.00;65101.44;5062070;27;45389;-50
2022/06/12 02:43:11;;;;;;;;;1.75;1.75;;;;;-143.57;100.00;65101.44;5097484;27;46244;-50
2022/06/12 02:45:50;;;;;;;;;4.00;2.00;;;;;-143.57;100.00;65101.44;5097150;27;45472;-54
2022/06/12 02:48:16;;;;;;;;;3.50;3.00;;;;;-143.57;100.00;65101.44;5097168;27;45256;-55
2022/06/12 02:50:49;;;;;;;;;3.75;2.00;;;;;-143.57;100.00;65101.44;5097131;27;45543;-51
2022/06/12 02:53:32;;;;;;;;;1.00;1.00;;;;;-143.57;100.00;65101.44;5097098;27;46335;-51
2022/06/12 02:56:10;;;;;;;;;4.50;1.75;;;;;-143.57;100.00;65101.44;5097005;27;45313;-52
2022/06/12 02:58:56;;;;;;;;;4.33;3.00;;;;;-143.57;100.00;65101.44;5097199;27;45331;-49
2022/06/12 03:01:31;;;;;;;;;3.00;1.75;;;;;-143.57;100.00;65101.44;5097184;27;45363;-53
2022/06/12 03:04:08;;;;;;;;;2.00;2.00;;;;;-143.57;100.00;65101.44;5096886;27;46218;-50
2022/06/12 03:06:34;;;;;;;;;2.00;2.00;;;;;-143.57;100.00;65101.44;5096876;27;45425;-53
2022/06/12 03:09:02;;;;;;;;;2.25;2.25;;;;;-143.57;100.00;65101.44;5096232;27;45475;-51
2022/06/12 03:11:33;;;;;;;;;2.75;2.75;;;;;-143.57;100.00;65101.44;5097143;27;45281;-51
2022/06/12 03:14:00;;;;;;;;;2.00;0.25;;;;;-143.57;100.00;65101.44;5096603;27;47022;-51
2022/06/12 03:16:28;;;;;;;;;4.25;1.50;;;;;-143.57;100.00;65101.44;5096788;27;45392;-53
2022/06/12 03:18:59;;;;;;;;;2.25;2.25;;;;;-143.57;100.00;65101.44;5097166;27;45177;-53
2022/06/12 03:21:33;;;;;;;;;5.00;3.25;;;;;-143.57;100.00;65101.44;5100832;27;45301;-50
2022/06/12 03:24:01;;;;;;;;;4.75;2.25;;;;;-143.57;100.00;65101.44;5100355;27;45410;-52
2022/06/12 03:26:44;;;;;;;;;3.00;3.00;;;;;-143.57;100.00;65101.44;5100160;27;45452;-52
2022/06/12 03:29:26;;;;;;;;;4.25;2.50;;;;;-143.57;100.00;65101.44;5100242;27;45323;-53
2022/06/12 03:32:13;;;;;;;;;6.50;2.00;;;;;-143.57;100.00;65101.44;5100537;27;45439;-54
2022/06/12 03:35:02;;;;;;;;;2.75;2.00;;;;;-143.57;100.00;65101.44;5099976;27;45420;-49
2022/06/12 03:37:55;;;;;;;;;4.00;4.00;;;;;-143.57;100.00;65101.44;5099892;27;45214;-51
2022/06/12 03:40:31;;;;;;;;;1.50;1.25;;;;;-143.57;100.00;65101.44;5100176;27;45459;-52
2022/06/12 03:43:05;;;;;;;;;3.50;1.50;;;;;-143.57;100.00;65101.44;5100700;27;45280;-53
2022/06/12 03:45:46;;;;;;;;;2.50;1.25;;;;;-143.57;100.00;65101.44;5100129;27;46113;-50
2022/06/12 03:48:15;;;;;;;;;7.50;2.50;;;;;-143.57;100.00;65101.44;5100233;27;45346;-52
2022/06/12 03:51:14;;;;;;;;;1.75;1.00;;;;;-143.57;100.00;65101.44;5099864;27;45548;-51
2022/06/12 03:53:42;;;;;;;;;1.00;1.00;;;;;-143.57;100.00;65101.44;5100083;27;45545;-52
2022/06/12 03:59:23;;;;;;;;;4.50;3.00;;;;;-143.57;100.00;65101.44;5099710;27;45441;-49
2022/06/12 04:01:51;;;;;;;;;6.00;2.50;;;;;-143.57;100.00;65101.44;5099732;27;45513;-52
2022/06/12 04:04:18;;;;;;;;;2.00;2.00;;;;;-143.57;100.00;65101.44;5100144;27;45437;-51
2022/06/12 04:06:45;;;;;;;;;3.75;1.00;;;;;-143.57;100.00;65101.44;5099397;27;45690;-53
2022/06/12 04:09:16;;;;;;;;;3.75;1.00;;;;;-143.57;100.00;65101.44;5099699;27;45364;-53
2022/06/12 04:11:48;;;;;;;;;3.67;2.00;;;;;-143.57;100.00;65101.44;5100224;27;45374;-50
2022/06/12 04:14:17;;;;;;;;;4.75;2.00;;;;;-143.57;100.00;65101.44;5099779;27;45292;-50
2022/06/12 04:16:50;;;;;;;;;2.00;2.00;;;;;-143.57;100.00;65101.44;5099347;27;45917;-51
2022/06/12 04:19:19;;;;;;;;;8.25;2.25;;;;;-143.57;100.00;65101.44;5099041;27;45513;-50
2022/06/12 04:22:10;;;;;;;;;2.00;2.00;;;;;-143.57;100.00;65101.44;5099339;27;45383;-53
2022/06/12 04:24:42;;;;;;;;;4.00;2.75;;;;;-143.57;100.00;65101.44;5099976;27;45354;-48
2022/06/12 04:27:28;;;;;;;;;2.75;1.00;;;;;-143.57;100.00;65101.44;5099082;27;46114;-53
2022/06/12 04:30:00;;;;;;;;;4.00;2.00;;;;;-143.57;100.00;65101.44;5098585;27;45457;-49
2022/06/12 04:32:27;;;;;;;;;1.50;1.00;;;;;-143.57;100.00;65101.44;5099357;27;45337;-50
2022/06/12 04:34:54;;;;;;;;;4.00;3.00;;;;;-143.57;100.00;65101.44;5099491;27;45260;-51
2022/06/12 04:37:30;;;;;;;;;3.50;2.00;;;;;-143.57;100.00;65101.44;5098932;27;46046;-52
2022/06/12 04:39:57;;;;;;;;;9.00;2.50;;;;;-143.57;100.00;65101.44;5099041;27;45396;-52
2022/06/12 04:42:25;;;;;;;;;7.00;2.00;;;;;-143.57;100.00;65101.44;5099491;27;45273;-49
2022/06/12 04:44:52;;;;;;;;;3.25;2.00;;;;;-143.57;100.00;65101.44;5099484;27;45513;-53
2022/06/12 04:47:22;;;;;;;;;3.00;1.00;;;;;-143.57;100.00;65101.44;5099654;27;46295;-49
2022/06/12 04:49:49;;;;;;;;;3.00;2.00;;;;;-143.57;100.00;65101.44;5099516;27;45385;-50
2022/06/12 04:52:15;;;;;;;;;6.00;2.50;;;;;-143.57;100.00;65101.44;5099093;27;45215;-52
2022/06/12 04:54:43;;;;;;;;;3.75;1.75;;;;;-143.57;100.00;65101.44;5099943;27;45275;-52
2022/06/12 04:57:09;;;;;;;;;3.33;2.33;;;;;-143.57;100.00;65101.44;5099367;27;45383;-50
2022/06/12 04:59:35;;;;;;;;;5.33;3.33;;;;;-143.57;100.00;65101.44;5099408;27;45357;-54
2022/06/12 05:02:02;;;;;;;;;4.75;3.00;;;;;-143.57;100.00;65101.44;5098692;27;45400;-50
2022/06/12 05:04:28;;;;;;;;;3.00;1.50;;;;;-143.57;100.00;65101.44;5098792;27;45438;-54
2022/06/12 05:06:55;;;;;;;;;4.25;3.00;;;;;-143.57;100.00;65101.44;5098705;27;46383;-51
2022/06/12 05:09:24;;;;;;;;;3.00;1.25;;;;;-143.57;100.00;65101.44;5098707;27;45374;-56
2022/06/12 05:11:50;;;;;;;;;5.75;2.00;;;;;-143.57;100.00;65101.44;5098673;27;45639;-55
2022/06/12 05:14:16;;;;;;;;;10.00;3.50;;;;;-143.57;100.00;65101.44;5098789;27;45448;-52
2022/06/12 05:16:47;;;;;;;;;7.25;2.00;;;;;-143.57;100.00;65101.44;5098506;27;46206;-56
2022/06/12 05:19:17;;;;;;;;;3.50;2.75;;;;;-143.57;100.00;65101.44;5098222;27;45577;-55
2022/06/12 05:21:43;;;;;;;;;5.75;2.00;;;;;-143.57;100.00;65101.44;5098431;27;45367;-54
2022/06/12 05:24:09;;;;;;;;;2.00;2.00;;;;;-143.57;100.00;65101.44;5098747;27;45279;-54
2022/06/12 05:26:35;;;;;;;;;2.75;2.00;;;;;-143.57;100.00;65101.44;5098094;27;46408;-54
2022/06/12 05:29:06;;;;;;;;;2.25;1.00;;;;;-143.57;100.00;65101.44;5098228;27;45338;-54
2022/06/12 05:31:32;;;;;;;;;4.00;2.75;;;;;-143.57;100.00;65101.44;5098485;27;45359;-53
2022/06/12 05:33:58;;;;;;;;;5.00;2.00;;;;;-143.57;100.00;65101.44;5098467;27;45247;-54
2022/06/12 05:36:25;;;;;;;;;8.50;4.00;;;;;-143.57;100.00;65101.44;5098160;27;45285;-54
2022/06/12 05:38:50;;;;;;;;;5.25;3.00;;;;;-143.57;100.00;65101.44;5097918;27;45449;-54
2022/06/12 05:41:16;;;;;;;;;1.75;1.75;;;;;-143.57;100.00;65101.44;5097594;27;45192;-52
2022/06/12 05:43:42;;;;;;;;;3.25;2.00;;;;;-143.57;100.00;65101.44;5098079;27;45522;-54
2022/06/12 05:46:09;;;;;;;;;5.00;1.00;;;;;-143.57;100.00;65101.44;5098177;27;46122;-52
2022/06/12 05:48:36;;;;;;;;;7.50;2.50;;;;;-143.57;100.00;65101.44;5098026;27;45362;-51
2022/06/12 05:51:02;;;;;;;;;3.75;2.00;;;;;-143.57;100.00;65101.44;5097419;27;45480;-55
2022/06/12 05:53:30;;;;;;;;;1.25;1.25;;;;;-143.57;100.00;65101.44;5098092;27;45404;-53
2022/06/12 05:55:57;;;;;;;;;4.00;1.25;;;;;-143.57;100.00;65101.44;5097537;27;45381;-50
2022/06/12 05:58:26;;;;;;;;;3.75;3.75;;;;;-143.57;100.00;65101.44;5097801;27;45269;-54
2022/06/12 06:00:52;;;;;;;;;5.75;2.00;;;;;-143.57;100.00;65101.44;5097947;27;45381;-54
2022/06/12 06:03:19;;;;;;;;;2.50;1.00;;;;;-143.57;100.00;65101.44;5097969;27;45195;-53
2022/06/12 06:05:47;;;;;;;;;2.00;1.00;;;;;-143.57;100.00;65101.44;5097539;27;45627;-54
2022/06/12 06:08:13;;;;;;;;;2.00;2.00;;;;;-143.57;100.00;65101.44;5097572;27;45312;-54
2022/06/12 06:10:39;;;;;;;;;5.25;2.75;;;;;-143.57;100.00;65101.44;5097879;27;45542;-53
2022/06/12 06:13:05;;;;;;;;;6.50;2.50;;;;;-143.57;100.00;65101.44;5097878;27;45444;-54
2022/06/12 06:15:31;;;;;;;;;4.00;1.00;;;;;-143.57;100.00;65101.44;5097366;27;47151;-53
2022/06/12 06:17:56;;;;;;;;;3.25;2.25;;;;;-143.57;100.00;65101.44;5096721;27;45363;-53
2022/06/12 06:20:29;;;;;;;;;7.00;2.75;;;;;-143.57;100.00;65101.44;5097665;27;45737;-53
2022/06/12 06:22:55;;;;;;;;;2.50;2.00;;;;;-143.57;100.00;65101.44;5097464;27;45333;-55
2022/06/12 06:25:22;;;;;;;;;2.50;2.50;;;;;-143.57;100.00;65101.44;5097374;27;46287;-53
2022/06/12 06:27:48;;;;;;;;;4.25;2.00;;;;;-143.57;100.00;65101.44;5096655;27;45452;-53
2022/06/12 06:30:14;;;;;;;;;5.75;2.00;;;;;-143.57;100.00;65101.44;5097005;27;45255;-52
2022/06/12 06:32:41;;;;;;;;;1.25;1.25;;;;;-143.57;100.00;65101.44;5097812;27;45231;-52
2022/06/12 06:35:08;;;;;;;;;4.50;2.50;;;;;-143.57;100.00;65101.44;5097017;27;47148;-52
2022/06/12 06:37:34;;;;;;;;;2.00;2.00;;;;;-143.57;100.00;65101.44;5097072;27;45413;-53
2022/06/12 06:40:00;;;;;;;;;1.00;1.00;;;;;-143.57;100.00;65101.44;5097328;27;45317;-53
2022/06/12 06:42:25;;;;;;;;;3.25;1.50;;;;;-143.57;100.00;65101.44;5097291;27;45252;-53
2022/06/12 06:47:35;;;;;;;;;2.80;2.00;;;;;-143.57;100.00;65101.44;5097285;27;45474;-52
2022/06/12 06:50:06;;;;;;;;;4.00;2.20;;;;;-143.57;100.00;65101.44;5097250;27;45346;-52
2022/06/12 06:52:31;;;;;;;;;5.50;2.25;;;;;-143.57;100.00;65101.44;5097411;27;45412;-54
2022/06/12 06:54:57;;;;;;;;;4.25;1.75;;;;;-143.57;100.00;65101.44;5100594;27;46235;-54
2022/06/12 06:57:23;;;;;;;;;1.75;1.75;;;;;-143.57;100.00;65101.44;5082196;27;45419;-54
2022/06/12 06:59:48;;;;;;;;;2.75;1.00;;;;;-143.57;100.00;65101.44;5100870;27;45400;-53
2022/06/12 07:02:14;;;;;;;;;1.75;1.00;;;;;-143.57;100.00;65101.44;5101029;27;45367;-54
2022/06/12 07:04:39;;;;;;;;;2.75;1.00;;;;;-143.57;100.00;65101.44;5100533;27;46077;-52
2022/06/12 07:07:05;;;;;;;;;2.00;2.00;;;;;-143.57;100.00;65101.44;5100951;27;45379;-53
2022/06/12 07:09:31;;;;;;;;;1.60;1.60;;;;;-143.57;100.00;65101.44;5100756;27;45413;-52
2022/06/12 07:11:56;;;;;;;;;1.75;1.00;;;;;-143.57;100.00;65101.44;5100828;27;45376;-53
2022/06/12 07:14:21;;;;;;;;;1.50;1.00;;;;;-143.57;100.00;65101.44;5100241;27;46161;-53
2022/06/12 07:16:47;;;;;;;;;1.00;1.00;;;;;-143.57;100.00;65101.44;5100271;27;45417;-54
2022/06/12 07:19:12;;;;;;;;;2.00;1.00;;;;;-143.57;100.00;65101.44;5100483;27;45351;-53
2022/06/12 07:21:38;;;;;;;;;2.00;2.00;;;;;-143.57;100.00;65101.44;5100670;27;45395;-54
2022/06/12 07:24:04;;;;;;;;;4.75;1.75;;;;;-143.57;100.00;65101.44;5100511;27;46595;-53
2022/06/12 07:26:36;;;;;;;;;1.25;1.25;;;;;-143.57;100.00;65101.44;5100400;27;45457;-54
2022/06/12 07:29:02;;;;;;;;;1.00;1.00;;;;;-143.57;100.00;65101.44;5100303;27;45384;-54
2022/06/12 07:31:28;;;;;;;;;2.40;1.00;;;;;-143.57;100.00;65101.44;5100396;27;45471;-54
2022/06/12 07:33:53;;;;;;;;;1.00;1.00;;;;;-143.57;100.00;65101.44;5100215;27;46138;-53
2022/06/12 07:36:19;;;;;;;;;3.00;2.00;;;;;-143.57;100.00;65101.44;5100251;27;45417;-54
2022/06/12 07:38:47;;;;;;;;;0.20;0.20;;;;;-143.57;100.00;65101.44;5100184;27;45556;-52
2022/06/12 07:41:15;;;;;;;;;3.40;1.00;;;;;-143.57;100.00;65101.44;5099857;27;45449;-53
2022/06/12 07:43:42;;;;;;;;;0.20;0.20;;;;;-143.57;100.00;65101.44;5100073;27;46211;-52
2022/06/12 07:46:10;;;;;;;;;3.00;1.60;;;;;-143.57;100.00;65101.44;5098941;27;45507;-54
2022/06/12 07:48:37;;;;;;;;;1.40;0.20;;;;;-143.57;100.00;65101.44;5099887;27;45401;-54
2022/06/12 07:51:07;;;;;;;;;1.60;0.00;;;;;-143.57;100.00;65101.44;5116180;27;45482;-53
2022/06/12 07:53:34;;;;;;;;;0.00;0.00;;;;;-143.57;100.00;65101.44;5099433;27;46414;-54
2022/06/12 07:56:01;;;;;;;;;0.20;0.20;;;;;-143.57;100.00;65101.44;5099666;27;45243;-53
2022/06/12 07:58:27;;;;;;;;;0.60;0.60;;;;;-143.57;100.00;65101.44;5099925;27;45378;-50
2022/06/12 08:00:56;;;;;;;;;1.80;0.00;;;;;-143.57;100.00;65101.44;5099775;27;45398;-52
2022/06/12 08:03:22;;;;;;;;;2.20;0.40;;;;;-143.57;100.00;65101.44;5099654;27;45278;-51
2022/06/12 08:05:48;;;;;;;;;2.00;1.00;;;;;-143.57;100.00;65101.44;5098715;27;45343;-53
2022/06/12 08:08:13;;;;;;;;;1.75;1.00;;;;;-143.57;100.00;65101.44;5099271;27;45282;-51
2022/06/12 08:10:39;;;;;;;;;2.00;0.00;;;;;-143.57;100.00;65101.44;5099772;27;45421;-52
2022/06/12 08:13:08;;;;;;;;;1.00;1.00;;;;;-143.57;100.00;65101.44;5099428;27;46170;-52
2022/06/12 08:15:34;;;;;;;;;3.00;0.00;;;;;-143.57;100.00;65101.44;5081033;27;45844;-53
2022/06/12 08:18:00;;;;;;;;;2.60;1.00;;;;;-143.57;100.00;65101.44;5099869;27;45424;-51
2022/06/12 08:20:31;;;;;;;;;2.40;1.20;;;;;-143.57;100.00;65101.44;5099510;27;45395;-50
2022/06/12 08:23:26;;;;;;;;;2.80;0.80;;;;;-143.57;100.00;65101.44;5114993;27;46850;-50
2022/06/12 08:25:53;;;;;;;;;2.80;2.00;;;;;-143.57;100.00;65101.44;5099343;27;45285;-53
2022/06/12 08:28:18;;;;;;;;;2.00;0.80;;;;;-143.57;100.00;65101.44;5099682;27;45445;-50
2022/06/12 08:30:43;;;;;;;;;3.75;0.75;;;;;-143.57;100.00;65101.44;5099511;27;45473;-52
2022/06/12 08:33:09;;;;;;;;;1.50;1.50;;;;;-143.57;100.00;65101.44;5099387;27;46066;-52
2022/06/12 08:35:36;;;;;;;;;0.00;0.00;;;;;-143.57;100.00;65101.44;5098914;27;45379;-49
2022/06/12 08:38:01;;;;;;;;;2.40;2.40;;;;;-143.57;100.00;65101.44;5099228;27;45326;-52
2022/06/12 08:40:38;;;;;;;;;2.00;1.00;;;;;-143.57;100.00;65101.44;5099468;27;45507;-51
2022/06/12 08:43:13;;;;;;;;;0.20;0.20;;;;;-143.57;100.00;65101.44;5098983;27;47345;-50
2022/06/12 08:45:45;;;;;;;;;1.80;1.60;;;;;-143.57;100.00;65101.44;5098920;27;45180;-51
2022/06/12 08:48:40;;;;;;;;;0.80;0.20;;;;;-143.57;100.00;65101.44;5099115;27;45334;-51
2022/06/12 08:51:12;;;;;;;;;1.00;1.00;;;;;-143.57;100.00;65101.44;5099314;27;45468;-52
2022/06/12 08:53:53;;;;;;;;;2.00;1.20;;;;;-143.57;100.00;65101.44;5098889;27;45557;-51
2022/06/12 08:56:36;;;;;;;;;2.00;0.80;;;;;-143.57;100.00;65101.44;5098916;27;45418;-53
2022/06/12 08:59:15;;;;;;;;;0.80;0.80;;;;;-143.57;100.00;65101.44;5099254;27;45330;-52
2022/06/12 09:01:44;;;;;;;;;1.40;1.20;;;;;-143.57;100.00;65101.44;5099160;27;45482;-51
2022/06/12 09:04:13;;;;;;;;;4.20;1.80;;;;;-143.57;100.00;65101.44;5098743;27;46541;-52
2022/06/12 09:07:12;;;;;;;;;2.00;1.80;;;;;-143.57;100.00;65101.44;5098734;27;45342;-53
2022/06/12 09:09:55;;;;;;;;;1.00;1.00;;;;;-143.57;100.00;65101.44;5098602;27;45399;-52
2022/06/12 09:12:41;;;;;;;;;0.60;0.60;;;;;-143.57;100.00;65101.44;5099246;27;45260;-51
2022/06/12 09:15:17;;;;;;;;;1.40;1.00;;;;;-143.57;100.00;65101.44;5098578;27;45648;-52
2022/06/12 09:18:13;;;;;;;;;1.40;1.40;;;;;-143.57;100.00;65101.44;5098446;27;45411;-51
2022/06/12 09:21:03;;;;;;;;;0.40;0.40;;;;;-143.57;100.00;65101.44;5098652;27;45260;-53
2022/06/12 09:23:52;;;;;;;;;0.80;0.80;;;;;-143.57;100.00;65101.44;5099078;27;45397;-52
2022/06/12 09:26:47;;;;;;;;;0.80;0.80;;;;;-143.57;100.00;65101.44;5098594;27;45384;-50
2022/06/12 09:29:35;;;;;;;;;0.80;0.80;;;;;-143.57;100.00;65101.44;5098639;27;45205;-52
2022/06/12 09:32:13;;;;;;;;;0.00;0.00;;;;;-143.57;100.00;65101.44;5098021;27;45503;-51
2022/06/12 09:34:42;;;;;;;;;2.20;0.60;;;;;-143.57;100.00;65101.44;5098451;27;45199;-54
2022/06/12 09:40:58;;;;;;;;;1.40;1.40;;;;;-143.57;100.00;65101.44;5098347;27;45346;-54
2022/06/12 09:43:45;;;;;;;;;1.00;0.80;;;;;-143.57;100.00;65101.44;5015199;28;45452;-54
2022/06/12 09:46:35;;;;;;;;;3.80;1.40;;;;;-143.57;100.00;65101.44;5015300;28;45463;-53
2022/06/12 09:49:15;;;;;;;;;0.00;0.00;;;;;-143.57;100.00;65101.44;5015038;28;45490;-52
2022/06/12 09:52:06;;;;;;;;;4.20;1.20;;;;;-143.57;100.00;65101.44;5015139;28;45298;-50
2022/06/12 09:54:40;;;;;;;;;1.60;1.60;;;;;-143.57;100.00;65101.44;5014641;28;45589;-52
2022/06/12 09:57:38;;;;;;;;;0.00;0.00;;;;;-143.57;100.00;65101.44;5015420;28;45428;-51
2022/06/12 10:00:06;;;;;;;;;2.40;2.40;;;;;-143.57;100.00;65101.44;5014985;28;46304;-52
2022/06/12 10:02:54;;;;;;;;;0.20;0.20;;;;;-143.57;100.00;65101.44;5014836;28;45457;-53
2022/06/12 10:05:26;;;;;;;;;2.80;1.00;;;;;-143.57;100.00;65101.44;5015035;28;45431;-50
2022/06/12 10:08:09;;;;;;;;;3.80;2.20;;;;;-143.57;100.00;65101.44;5015115;28;45606;-51
2022/06/12 10:11:00;;;;;;;;;0.60;0.00;;;;;-143.57;100.00;65101.44;5014791;28;45575;-53
2022/06/12 10:13:37;;;;;;;;;0.40;0.20;;;;;-143.57;100.00;65101.44;4999427;28;45687;-51
2022/06/12 10:16:10;;;;;;;;;2.40;1.20;;;;;-143.57;100.00;65101.44;5014704;28;45494;-51
2022/06/12 10:18:40;;;;;;;;;1.40;1.40;;;;;-143.57;100.00;65101.44;5096518;27;45388;-50
2022/06/12 10:21:13;;;;;;;;;3.60;2.20;;;;;-143.57;100.00;65101.44;5097457;27;46287;-51
2022/06/12 10:23:39;;;;;;;;;2.80;0.80;;;;;-143.57;100.00;65101.44;5097441;27;45520;-52
2022/06/12 10:26:29;;;;;;;;;2.75;1.75;;;;;-143.57;100.00;65101.44;5097757;27;45324;-50
2022/06/12 10:29:06;;;;;;;;;1.80;1.80;;;;;-143.57;100.00;65101.44;5097307;27;45279;-51
2022/06/12 10:31:49;;;;;;;;;2.60;1.40;;;;;-143.57;100.00;65101.44;5096770;27;45342;-51
2022/06/12 10:34:29;;;;;;;;;2.20;1.20;;;;;-143.57;100.00;65101.44;5097722;27;45411;-52
2022/06/12 10:37:07;;;;;;;;;2.00;1.40;;;;;-143.57;100.00;65101.44;5097446;27;45445;-52
2022/06/12 10:39:34;;;;;;;;;1.20;1.20;;;;;-143.57;100.00;65101.44;5097646;27;45254;-52
2022/06/12 10:42:03;;;;;;;;;3.20;2.20;;;;;-143.57;100.00;65101.44;5097261;27;47127;-50
2022/06/12 10:44:36;;;;;;;;;3.60;2.20;;;;;-143.57;100.00;65101.44;5096278;27;45389;-53
2022/06/12 10:47:22;;;;;;;;;2.20;2.00;;;;;-143.57;100.00;65101.44;5097554;27;45304;-51
2022/06/12 10:50:15;;;;;;;;;1.20;1.00;;;;;-143.57;100.00;65101.44;5097463;27;45325;-53
2022/06/12 10:52:51;;;;;;;;;1.00;1.00;;;;;-143.57;100.00;65101.44;5096900;27;47503;-50
2022/06/12 10:55:23;;;;;;;;;2.20;1.00;;;;;-143.57;100.00;65101.44;5096849;27;45366;-53
2022/06/12 10:58:05;;;;;;;;;3.40;2.20;;;;;-143.57;100.00;65101.44;5097528;27;45369;-52
2022/06/12 11:00:39;;;;;;;;;2.00;2.00;;;;;-143.57;100.00;65101.44;5097511;27;45488;-51
2022/06/12 11:03:22;;;;;;;;;4.40;2.20;;;;;-143.57;100.00;65101.44;5097177;27;46694;-51
2022/06/12 11:06:03;;;;;;;;;2.00;2.00;;;;;-143.57;100.00;65101.44;5096870;27;45452;-49
2022/06/12 11:08:58;;;;;;;;;2.80;2.20;;;;;-143.57;100.00;65101.44;5097065;27;45219;-50
2022/06/12 11:11:24;;;;;;;;;3.00;1.60;;;;;-143.57;100.00;65101.44;5097164;27;45362;-51
2022/06/12 11:14:05;;;;;;;;;3.00;3.00;;;;;-143.57;100.00;65101.44;5096824;27;45562;-53
2022/06/12 11:16:46;;;;;;;;;4.20;2.60;;;;;-143.57;100.00;65101.44;5097055;27;45321;-51
2022/06/12 11:19:33;;;;;;;;;2.40;2.00;;;;;-143.57;100.00;65101.44;5097166;27;45433;-52
2022/06/12 11:22:03;;;;;;;;;2.20;2.20;;;;;-143.57;100.00;65101.44;5097085;27;45330;-49
2022/06/12 11:24:48;;;;;;;;;2.40;2.40;;;;;-143.57;100.00;65101.44;5096675;27;45469;-52
2022/06/12 11:27:27;;;;;;;;;4.00;3.00;;;;;-143.57;100.00;65101.44;5096601;27;45473;-52
2022/06/12 11:30:11;;;;;;;;;2.20;2.20;;;;;-143.57;100.00;65101.44;5097012;27;45416;-53
2022/06/12 11:32:36;;;;;;;;;5.40;4.40;;;;;-143.57;100.00;65101.44;5097037;27;45341;-53
2022/06/12 11:35:17;;;;;;;;;4.00;4.00;;;;;-143.57;100.00;65101.44;5096820;27;46420;-52
2022/06/12 11:38:06;;;;;;;;;5.60;4.40;;;;;-143.57;100.00;65101.44;5096758;27;45263;-50
2022/06/12 11:40:43;;;;;;;;;6.80;3.60;;;;;-143.57;100.00;65101.44;5098177;27;45521;-53
2022/06/12 11:43:39;;;;;;;;;5.80;2.80;;;;;-143.57;100.00;65101.44;5100296;27;45399;-52
2022/06/12 11:46:36;;;;;;;;;5.20;2.20;;;;;-143.57;100.00;65101.44;5100050;27;46096;-52
2022/06/12 11:49:23;;;;;;;;;1.80;1.80;;;;;-143.57;100.00;65101.44;5100049;27;45188;-51
2022/06/12 11:51:54;;;;;;;;;2.00;2.00;;;;;-143.57;100.00;65101.44;5100081;27;45267;-54